createdAt,value
2022-08-16T00:03:44.091Z,100004.72
2022-08-16T00:08:47.011Z,100009.44
2022-08-16T00:13:53.574Z,100004.88
2022-08-16T00:18:56.776Z,100014.00
2022-08-16T00:24:00.409Z,100014.00
2022-08-16T00:29:06.989Z,100014.88
2022-08-16T00:34:08.949Z,100027.13
2022-08-16T00:39:20.905Z,100033.22
2022-08-16T00:44:23.040Z,100016.84
2022-08-16T00:49:39.707Z,100025.31
2022-08-16T00:54:46.792Z,100012.09
2022-08-16T00:59:58.734Z,100017.88
2022-08-16T01:05:11.375Z,100021.09
2022-08-16T01:10:16.385Z,100024.28
2022-08-16T01:15:19.318Z,100019.94
2022-08-16T01:20:30.523Z,100021.44
2022-08-16T01:25:37.457Z,100020.06
2022-08-16T01:30:49.774Z,100025.13
2022-08-16T01:35:57.914Z,100027.13
2022-08-16T01:41:12.000Z,100026.63
2022-08-16T01:46:37.817Z,100025.75
2022-08-16T01:51:44.510Z,100020.75
2022-08-16T01:56:46.601Z,100024.09
2022-08-16T02:01:59.466Z,100025.25
2022-08-16T02:07:05.687Z,100023.94
2022-08-16T02:12:42.131Z,100021.38
2022-08-16T02:17:31.636Z,100020.34
2022-08-16T02:22:36.862Z,100023.56
2022-08-16T02:27:40.955Z,100022.06
2022-08-16T02:32:50.148Z,100011.41
2022-08-16T02:38:08.833Z,100025.25
2022-08-16T02:43:11.314Z,100020.50
2022-08-16T02:48:28.341Z,100013.97
2022-08-16T02:53:33.588Z,100018.16
2022-08-16T02:58:35.669Z,100023.88
2022-08-16T03:04:29.102Z,100010.41
2022-08-16T03:09:00.655Z,100016.13
2022-08-16T03:14:07.344Z,100006.66
2022-08-16T03:19:10.131Z,100011.38
2022-08-16T03:24:28.250Z,100011.69
2022-08-16T03:29:33.611Z,100018.16
2022-08-16T03:34:35.966Z,100024.19
2022-08-16T03:39:42.815Z,100028.47
2022-08-16T03:44:49.252Z,100033.28
2022-08-16T03:49:52.391Z,100039.69
2022-08-16T03:54:57.961Z,100038.00
2022-08-16T04:00:01.187Z,100043.56
2022-08-16T04:05:08.485Z,100053.59
2022-08-16T04:10:36.137Z,100046.94
2022-08-16T04:15:35.115Z,100055.19
2022-08-16T04:20:37.248Z,100060.94
2022-08-16T04:25:42.481Z,100054.03
2022-08-16T04:30:50.465Z,100060.59
2022-08-16T04:35:55.223Z,100055.03
2022-08-16T04:40:58.659Z,100072.06
2022-08-16T04:46:02.987Z,100069.16
2022-08-16T04:51:11.824Z,100049.78
2022-08-16T04:56:16.486Z,100070.03
2022-08-16T05:01:19.213Z,100066.84
2022-08-16T05:06:21.714Z,100075.44
2022-08-16T05:11:43.584Z,100071.38
2022-08-16T05:16:45.366Z,100090.09
2022-08-16T05:21:47.512Z,100098.72
2022-08-16T05:26:51.359Z,100098.03
2022-08-16T05:31:53.559Z,100095.31
2022-08-16T05:36:58.710Z,100100.38
2022-08-16T05:42:00.969Z,100094.78
2022-08-16T05:47:02.809Z,100103.09
2022-08-16T05:52:11.363Z,100103.78
2022-08-16T05:57:20.570Z,100110.06
2022-08-16T06:02:28.958Z,100115.06
2022-08-16T06:07:32.053Z,100116.09
2022-08-16T06:12:34.209Z,100117.25
2022-08-16T06:17:43.553Z,100114.22
2022-08-16T06:22:47.820Z,100116.38
2022-08-16T06:27:59.878Z,100123.78
2022-08-16T06:33:04.247Z,100134.16
2022-08-16T06:38:06.252Z,100134.66
2022-08-16T06:43:28.423Z,100133.47
2022-08-16T06:48:32.617Z,100130.63
2022-08-16T06:53:36.831Z,100142.16
2022-08-16T06:58:38.925Z,100140.56
2022-08-16T07:03:55.012Z,100146.50
2022-08-16T07:08:59.031Z,100145.16
2022-08-16T07:14:23.627Z,100159.00
2022-08-16T07:20:01.279Z,100164.00
2022-08-16T07:24:45.829Z,100172.66
2022-08-16T07:29:48.329Z,100159.78
2022-08-16T07:34:50.675Z,100157.72
2022-08-16T07:39:54.363Z,100161.88
2022-08-16T07:44:58.320Z,100155.66
2022-08-16T07:50:05.531Z,100158.78
2022-08-16T07:55:14.245Z,100174.31
2022-08-16T08:00:18.599Z,100171.53
2022-08-16T08:05:35.363Z,100167.59
2022-08-16T08:10:37.629Z,100169.78
2022-08-16T08:15:40.919Z,100183.19
2022-08-16T08:20:59.439Z,100181.94
2022-08-16T08:26:02.295Z,100184.47
2022-08-16T08:31:04.795Z,100190.16
2022-08-16T08:36:11.635Z,100195.03
2022-08-16T08:41:29.001Z,100190.25
2022-08-16T08:46:35.697Z,100204.97
2022-08-16T08:51:41.417Z,100208.34
2022-08-16T08:56:45.402Z,100196.88
2022-08-16T09:01:58.094Z,100197.38
2022-08-16T09:07:01.262Z,100200.06
2022-08-16T09:12:06.787Z,100196.19
2022-08-16T09:17:21.580Z,100201.16
2022-08-16T09:22:30.791Z,100202.28
2022-08-16T09:27:56.621Z,100198.91
2022-08-16T09:32:54.996Z,100193.88
2022-08-16T09:38:00.534Z,100196.44
2022-08-16T09:43:05.113Z,100196.59
2022-08-16T09:48:09.407Z,100201.84
2022-08-16T09:53:21.280Z,100191.53
2022-08-16T09:58:40.457Z,100190.22
2022-08-16T10:04:02.137Z,100194.63
2022-08-16T10:09:08.360Z,100187.19
2022-08-16T10:14:16.016Z,100198.84
2022-08-16T10:19:19.350Z,100200.22
2022-08-16T10:24:27.076Z,100202.94
2022-08-16T10:30:00.813Z,100199.84
2022-08-16T10:34:52.611Z,100208.28
2022-08-16T10:39:55.849Z,100213.69
2022-08-16T10:44:57.880Z,100205.38
2022-08-16T10:49:59.720Z,100210.41
2022-08-16T11:00:24.626Z,100215.13
2022-08-16T11:05:26.657Z,100212.47
2022-08-16T11:16:01.472Z,100221.19
2022-08-16T11:21:03.498Z,100232.00
2022-08-16T11:26:23.476Z,100231.72
2022-08-16T11:31:26.566Z,100233.66
2022-08-16T11:36:29.639Z,100238.72
2022-08-16T11:41:34.294Z,100236.22
2022-08-16T11:46:45.209Z,100240.97
2022-08-16T11:51:50.430Z,100247.00
2022-08-16T11:56:57.208Z,100229.31
2022-08-16T12:02:30.617Z,100239.28
2022-08-16T12:07:23.547Z,100231.38
2022-08-16T12:12:28.531Z,100236.28
2022-08-16T12:17:32.356Z,100231.31
2022-08-16T12:22:38.091Z,100237.16
2022-08-16T12:27:41.101Z,100232.44
2022-08-16T12:32:43.797Z,100240.56
2022-08-16T12:37:56.789Z,100223.72
2022-08-16T12:43:01.991Z,100231.56
2022-08-16T12:48:34.359Z,100232.41
2022-08-16T12:53:39.983Z,100224.78
2022-08-16T12:58:49.392Z,100221.94
2022-08-16T13:04:11.456Z,100228.66
2022-08-16T13:09:21.064Z,100217.69
2022-08-16T13:14:31.311Z,100220.59
2022-08-16T13:20:03.796Z,100223.94
2022-08-16T13:24:58.324Z,100213.31
2022-08-16T13:30:00.106Z,100213.66
2022-08-16T13:35:01.908Z,100215.69
2022-08-16T13:40:05.639Z,100217.34
2022-08-16T13:45:16.757Z,100217.50
2022-08-16T13:50:18.992Z,100221.78
2022-08-16T13:55:33.400Z,100228.69
2022-08-16T14:00:35.813Z,100232.94
2022-08-16T14:05:37.781Z,100233.78
2022-08-16T14:10:40.206Z,100238.66
2022-08-16T14:15:42.319Z,100231.91
2022-08-16T14:20:48.552Z,100236.31
2022-08-16T14:25:53.711Z,100227.19
2022-08-16T14:30:56.797Z,100222.97
2022-08-16T14:35:59.442Z,100219.41
2022-08-16T14:41:02.007Z,100207.28
2022-08-16T14:46:07.407Z,100212.00
2022-08-16T14:51:10.912Z,100206.59
2022-08-16T14:56:17.582Z,100206.41
2022-08-16T15:01:57.304Z,100202.72
2022-08-16T15:07:00.214Z,100199.66
2022-08-16T15:12:27.088Z,100201.22
2022-08-16T15:17:33.837Z,100209.19
2022-08-16T15:22:43.962Z,100203.59
2022-08-16T15:27:55.115Z,100204.28
2022-08-16T15:33:03.978Z,100206.63
2022-08-16T15:38:09.177Z,100216.75
2022-08-16T15:43:11.699Z,100215.03
2022-08-16T15:48:13.843Z,100223.88
2022-08-16T15:53:22.670Z,100228.56
2022-08-16T15:58:34.865Z,100223.88
2022-08-16T16:03:37.913Z,100210.91
2022-08-16T16:08:41.734Z,100222.88
2022-08-16T16:13:44.155Z,100207.47
2022-08-16T16:18:48.792Z,100220.69
2022-08-16T16:23:55.081Z,100215.78
2022-08-16T16:29:08.510Z,100200.72
2022-08-16T16:34:16.765Z,100209.19
2022-08-16T16:39:19.488Z,100202.41
2022-08-16T16:44:33.551Z,100201.88
2022-08-16T16:49:41.628Z,100193.25
2022-08-16T16:54:43.728Z,100204.06
2022-08-16T16:59:50.057Z,100209.81
2022-08-16T17:04:57.729Z,100206.66
2022-08-16T17:10:04.087Z,100200.69
2022-08-16T17:15:08.025Z,100206.75
2022-08-16T17:20:12.783Z,100196.81
2022-08-16T17:25:14.821Z,100207.28
2022-08-16T17:30:21.335Z,100201.41
2022-08-16T17:35:34.122Z,100189.41
2022-08-16T17:40:49.477Z,100194.50
2022-08-16T17:45:57.848Z,100195.84
2022-08-16T17:51:00.202Z,100198.38
2022-08-16T17:56:02.422Z,100201.25
2022-08-16T18:01:05.066Z,100200.22
2022-08-16T18:06:13.733Z,100213.38
2022-08-16T18:11:19.136Z,100210.78
2022-08-16T18:16:28.130Z,100219.72
2022-08-16T18:21:48.425Z,100223.59
2022-08-16T18:26:50.704Z,100218.84
2022-08-16T18:31:52.631Z,100220.59
2022-08-16T18:36:54.568Z,100212.97
2022-08-16T18:41:56.698Z,100217.75
2022-08-16T18:46:58.515Z,100211.25
2022-08-16T18:52:01.552Z,100215.28
2022-08-16T18:57:07.860Z,100210.34
2022-08-16T19:02:10.046Z,100228.66
2022-08-16T19:07:32.092Z,100232.50
2022-08-16T19:12:38.296Z,100245.03
2022-08-16T19:17:45.399Z,100245.03
2022-08-16T19:23:05.204Z,100264.13
2022-08-16T19:28:08.832Z,100305.06
2022-08-16T19:33:31.635Z,100338.06
2022-08-16T19:38:33.775Z,100344.06
2022-08-16T19:43:36.417Z,100338.19
2022-08-16T19:48:38.524Z,100336.44
2022-08-16T19:53:40.567Z,100353.97
2022-08-16T19:58:56.353Z,100352.88
2022-08-16T20:04:05.455Z,100353.13
2022-08-16T20:09:07.594Z,100351.94
2022-08-16T20:14:09.548Z,100348.09
2022-08-16T20:19:11.596Z,100335.59
2022-08-16T20:24:32.566Z,100336.97
2022-08-16T20:29:37.143Z,100332.50
2022-08-16T20:34:39.424Z,100322.41
2022-08-16T20:39:46.384Z,100308.47
2022-08-16T20:44:49.067Z,100322.06
2022-08-16T20:49:53.780Z,100332.50
2022-08-16T20:54:56.288Z,100337.44
2022-08-16T20:59:58.283Z,100349.34
2022-08-16T21:05:00.054Z,100352.41
2022-08-16T21:10:02.451Z,100350.03
2022-08-16T21:15:08.873Z,100333.22
2022-08-16T21:20:11.693Z,100340.31
2022-08-16T21:25:13.555Z,100347.63
2022-08-16T21:30:16.984Z,100347.63
2022-08-16T21:35:21.782Z,100347.22
2022-08-16T21:40:25.073Z,100337.81
2022-08-16T21:45:27.068Z,100331.03
2022-08-16T21:50:29.534Z,100335.03
2022-08-16T21:55:31.509Z,100321.69
2022-08-16T22:00:34.005Z,100318.16
2022-08-16T22:05:37.003Z,100319.69
2022-08-16T22:11:06.140Z,100326.00
2022-08-16T22:16:00.741Z,100329.88
2022-08-16T22:21:02.671Z,100333.81
2022-08-16T22:26:04.811Z,100315.72
2022-08-16T22:31:06.638Z,100328.22
2022-08-16T22:36:08.799Z,100323.00
2022-08-16T22:41:10.644Z,100321.63
2022-08-16T22:46:12.484Z,100316.44
2022-08-16T22:51:14.438Z,100320.31
2022-08-16T22:56:17.584Z,100323.25
2022-08-16T23:01:21.891Z,100326.94
2022-08-16T23:06:24.803Z,100328.22
2022-08-16T23:11:26.729Z,100322.59
2022-08-16T23:16:32.527Z,100318.44
2022-08-16T23:21:38.867Z,100323.00
2022-08-16T23:26:46.784Z,100336.97
2022-08-16T23:31:50.557Z,100331.25
2022-08-16T23:36:56.659Z,100321.44
2022-08-16T23:41:58.990Z,100323.31
2022-08-16T23:47:00.855Z,100312.63
2022-08-16T23:52:09.590Z,100304.03
2022-08-16T23:57:11.557Z,100310.13
